sensor_id;sensor_type;location;lat;lon;timestamp;P1;durP1;ratioP1;P2;durP2;ratioP2
62149;SDS011;48134;53.586;10.610;2023-02-28T00:01:20;5.93;;;1.40;;
62149;SDS011;48134;53.586;10.610;2023-02-28T00:03:48;5.10;;;1.40;;
62149;SDS011;48134;53.586;10.610;2023-02-28T00:06:22;6.03;;;1.67;;
62149;SDS011;48134;53.586;10.610;2023-02-28T00:08:55;5.20;;;1.50;;
62149;SDS011;48134;53.586;10.610;2023-02-28T00:11:23;3.87;;;1.37;;
62149;SDS011;48134;53.586;10.610;2023-02-28T00:13:51;5.10;;;1.50;;
62149;SDS011;48134;53.586;10.610;2023-02-28T00:16:19;5.53;;;1.38;;
62149;SDS011;48134;53.586;10.610;2023-02-28T00:18:47;4.97;;;1.63;;
62149;SDS011;48134;53.586;10.610;2023-02-28T00:21:20;5.00;;;1.45;;
62149;SDS011;48134;53.586;10.610;2023-02-28T00:23:55;7.20;;;1.73;;
62149;SDS011;48134;53.586;10.610;2023-02-28T00:26:22;5.50;;;1.60;;
62149;SDS011;48134;53.586;10.610;2023-02-28T00:28:51;7.88;;;1.70;;
62149;SDS011;48134;53.586;10.610;2023-02-28T00:31:19;6.10;;;1.33;;
62149;SDS011;48134;53.586;10.610;2023-02-28T00:33:47;8.20;;;1.55;;
62149;SDS011;48134;53.586;10.610;2023-02-28T00:36:15;5.67;;;1.50;;
62149;SDS011;48134;53.586;10.610;2023-02-28T00:38:43;4.38;;;1.45;;
62149;SDS011;48134;53.586;10.610;2023-02-28T00:41:17;8.00;;;1.58;;
62149;SDS011;48134;53.586;10.610;2023-02-28T00:43:46;5.05;;;1.70;;
62149;SDS011;48134;53.586;10.610;2023-02-28T00:46:19;5.78;;;1.48;;
62149;SDS011;48134;53.586;10.610;2023-02-28T00:48:52;3.95;;;1.60;;
62149;SDS011;48134;53.586;10.610;2023-02-28T00:51:20;7.50;;;1.90;;
62149;SDS011;48134;53.586;10.610;2023-02-28T00:53:53;4.63;;;1.60;;
62149;SDS011;48134;53.586;10.610;2023-02-28T00:56:27;6.07;;;1.60;;
62149;SDS011;48134;53.586;10.610;2023-02-28T00:59:00;8.73;;;1.80;;
62149;SDS011;48134;53.586;10.610;2023-02-28T01:01:27;3.78;;;1.40;;
62149;SDS011;48134;53.586;10.610;2023-02-28T01:04:00;6.72;;;1.88;;
62149;SDS011;48134;53.586;10.610;2023-02-28T01:06:35;5.88;;;1.70;;
62149;SDS011;48134;53.586;10.610;2023-02-28T01:09:03;6.60;;;1.83;;
62149;SDS011;48134;53.586;10.610;2023-02-28T01:11:33;6.60;;;1.70;;
62149;SDS011;48134;53.586;10.610;2023-02-28T01:14:06;4.70;;;1.65;;
62149;SDS011;48134;53.586;10.610;2023-02-28T01:16:33;7.78;;;1.80;;
62149;SDS011;48134;53.586;10.610;2023-02-28T01:19:02;7.93;;;1.90;;
62149;SDS011;48134;53.586;10.610;2023-02-28T01:21:35;7.40;;;1.85;;
62149;SDS011;48134;53.586;10.610;2023-02-28T01:24:03;6.82;;;2.05;;
62149;SDS011;48134;53.586;10.610;2023-02-28T01:26:32;7.90;;;1.80;;
62149;SDS011;48134;53.586;10.610;2023-02-28T01:29:00;6.95;;;2.30;;
62149;SDS011;48134;53.586;10.610;2023-02-28T01:31:28;9.13;;;3.30;;
62149;SDS011;48134;53.586;10.610;2023-02-28T01:33:56;7.77;;;2.73;;
62149;SDS011;48134;53.586;10.610;2023-02-28T01:36:28;7.70;;;2.70;;
62149;SDS011;48134;53.586;10.610;2023-02-28T01:38:56;8.05;;;3.00;;
62149;SDS011;48134;53.586;10.610;2023-02-28T01:41:30;13.05;;;5.03;;
62149;SDS011;48134;53.586;10.610;2023-02-28T01:44:06;19.47;;;8.50;;
62149;SDS011;48134;53.586;10.610;2023-02-28T01:46:34;15.20;;;6.53;;
62149;SDS011;48134;53.586;10.610;2023-02-28T01:49:05;13.50;;;6.00;;
62149;SDS011;48134;53.586;10.610;2023-02-28T01:51:40;16.95;;;6.60;;
62149;SDS011;48134;53.586;10.610;2023-02-28T01:54:12;15.07;;;5.68;;
62149;SDS011;48134;53.586;10.610;2023-02-28T01:56:47;23.33;;;10.88;;
62149;SDS011;48134;53.586;10.610;2023-02-28T01:59:23;12.38;;;5.72;;
62149;SDS011;48134;53.586;10.610;2023-02-28T02:01:57;10.27;;;4.25;;
62149;SDS011;48134;53.586;10.610;2023-02-28T02:04:27;11.20;;;3.83;;
62149;SDS011;48134;53.586;10.610;2023-02-28T02:06:56;10.00;;;3.47;;
62149;SDS011;48134;53.586;10.610;2023-02-28T02:09:30;9.17;;;3.57;;
62149;SDS011;48134;53.586;10.610;2023-02-28T02:11:58;9.33;;;3.60;;
62149;SDS011;48134;53.586;10.610;2023-02-28T02:14:40;9.88;;;3.60;;
62149;SDS011;48134;53.586;10.610;2023-02-28T02:17:19;10.02;;;3.88;;
62149;SDS011;48134;53.586;10.610;2023-02-28T02:25:30;10.18;;;3.60;;
62149;SDS011;48134;53.586;10.610;2023-02-28T02:31:13;7.35;;;3.40;;
62149;SDS011;48134;53.586;10.610;2023-02-28T02:36:35;9.43;;;3.60;;
62149;SDS011;48134;53.586;10.610;2023-02-28T02:39:04;10.10;;;3.45;;
62149;SDS011;48134;53.586;10.610;2023-02-28T02:41:34;9.43;;;3.28;;
62149;SDS011;48134;53.586;10.610;2023-02-28T02:44:11;9.38;;;3.28;;
62149;SDS011;48134;53.586;10.610;2023-02-28T02:46:41;10.55;;;3.38;;
62149;SDS011;48134;53.586;10.610;2023-02-28T02:49:15;8.20;;;3.30;;
62149;SDS011;48134;53.586;10.610;2023-02-28T02:51:46;9.27;;;3.20;;
62149;SDS011;48134;53.586;10.610;2023-02-28T02:54:20;9.32;;;3.35;;
62149;SDS011;48134;53.586;10.610;2023-02-28T02:56:50;10.25;;;2.92;;
62149;SDS011;48134;53.586;10.610;2023-02-28T02:59:23;9.20;;;3.40;;
62149;SDS011;48134;53.586;10.610;2023-02-28T03:01:53;9.80;;;2.90;;
62149;SDS011;48134;53.586;10.610;2023-02-28T03:04:23;8.27;;;2.67;;
62149;SDS011;48134;53.586;10.610;2023-02-28T03:06:53;9.70;;;2.90;;
62149;SDS011;48134;53.586;10.610;2023-02-28T03:09:26;6.80;;;2.28;;
62149;SDS011;48134;53.586;10.610;2023-02-28T03:11:59;6.38;;;2.30;;
62149;SDS011;48134;53.586;10.610;2023-02-28T03:14:30;8.48;;;2.72;;
62149;SDS011;48134;53.586;10.610;2023-02-28T03:17:10;6.40;;;2.42;;
62149;SDS011;48134;53.586;10.610;2023-02-28T03:19:51;7.75;;;2.30;;
62149;SDS011;48134;53.586;10.610;2023-02-28T03:25:14;8.95;;;2.80;;
62149;SDS011;48134;53.586;10.610;2023-02-28T03:27:52;9.88;;;3.00;;
62149;SDS011;48134;53.586;10.610;2023-02-28T03:30:28;10.40;;;3.13;;
62149;SDS011;48134;53.586;10.610;2023-02-28T03:32:58;10.98;;;3.42;;
62149;SDS011;48134;53.586;10.610;2023-02-28T03:35:34;8.02;;;2.75;;
62149;SDS011;48134;53.586;10.610;2023-02-28T03:38:05;9.90;;;3.20;;
62149;SDS011;48134;53.586;10.610;2023-02-28T03:40:40;7.65;;;3.10;;
62149;SDS011;48134;53.586;10.610;2023-02-28T03:43:12;8.40;;;3.03;;
62149;SDS011;48134;53.586;10.610;2023-02-28T03:45:45;9.65;;;3.30;;
62149;SDS011;48134;53.586;10.610;2023-02-28T03:48:21;9.40;;;3.15;;
62149;SDS011;48134;53.586;10.610;2023-02-28T03:50:55;10.23;;;3.43;;
62149;SDS011;48134;53.586;10.610;2023-02-28T03:53:31;9.57;;;3.20;;
62149;SDS011;48134;53.586;10.610;2023-02-28T03:56:07;12.32;;;3.33;;
62149;SDS011;48134;53.586;10.610;2023-02-28T03:58:42;9.70;;;3.63;;
62149;SDS011;48134;53.586;10.610;2023-02-28T04:01:17;9.63;;;3.53;;
62149;SDS011;48134;53.586;10.610;2023-02-28T04:03:47;11.77;;;3.55;;
62149;SDS011;48134;53.586;10.610;2023-02-28T04:06:22;10.47;;;3.20;;
62149;SDS011;48134;53.586;10.610;2023-02-28T04:08:50;8.65;;;3.40;;
62149;SDS011;48134;53.586;10.610;2023-02-28T04:11:22;8.82;;;3.83;;
62149;SDS011;48134;53.586;10.610;2023-02-28T04:13:50;10.18;;;3.72;;
62149;SDS011;48134;53.586;10.610;2023-02-28T04:16:23;8.80;;;3.88;;
62149;SDS011;48134;53.586;10.610;2023-02-28T04:18:51;11.50;;;4.22;;
62149;SDS011;48134;53.586;10.610;2023-02-28T04:21:24;10.20;;;3.90;;
62149;SDS011;48134;53.586;10.610;2023-02-28T04:23:51;10.20;;;4.00;;
62149;SDS011;48134;53.586;10.610;2023-02-28T04:26:19;10.30;;;4.10;;
62149;SDS011;48134;53.586;10.610;2023-02-28T04:28:54;14.07;;;4.10;;
62149;SDS011;48134;53.586;10.610;2023-02-28T04:31:27;10.68;;;3.90;;
62149;SDS011;48134;53.586;10.610;2023-02-28T04:34:00;9.40;;;4.20;;
62149;SDS011;48134;53.586;10.610;2023-02-28T04:36:33;10.52;;;3.90;;
62149;SDS011;48134;53.586;10.610;2023-02-28T04:39:00;10.98;;;4.28;;
62149;SDS011;48134;53.586;10.610;2023-02-28T04:41:28;9.73;;;4.32;;
62149;SDS011;48134;53.586;10.610;2023-02-28T04:43:58;9.13;;;3.90;;
62149;SDS011;48134;53.586;10.610;2023-02-28T04:46:30;12.13;;;4.88;;
62149;SDS011;48134;53.586;10.610;2023-02-28T04:49:03;12.65;;;4.25;;
62149;SDS011;48134;53.586;10.610;2023-02-28T04:51:31;12.45;;;4.80;;
62149;SDS011;48134;53.586;10.610;2023-02-28T04:53:59;11.63;;;4.43;;
62149;SDS011;48134;53.586;10.610;2023-02-28T04:56:26;11.48;;;4.20;;
62149;SDS011;48134;53.586;10.610;2023-02-28T04:59:01;12.55;;;4.60;;
62149;SDS011;48134;53.586;10.610;2023-02-28T05:01:33;10.15;;;4.85;;
62149;SDS011;48134;53.586;10.610;2023-02-28T05:04:08;12.18;;;5.05;;
62149;SDS011;48134;53.586;10.610;2023-02-28T05:06:42;13.35;;;5.70;;
62149;SDS011;48134;53.586;10.610;2023-02-28T05:09:09;13.95;;;6.47;;
62149;SDS011;48134;53.586;10.610;2023-02-28T05:11:44;11.60;;;4.90;;
62149;SDS011;48134;53.586;10.610;2023-02-28T05:14:18;13.07;;;4.88;;
62149;SDS011;48134;53.586;10.610;2023-02-28T05:16:51;11.23;;;4.95;;
62149;SDS011;48134;53.586;10.610;2023-02-28T05:19:18;12.15;;;4.93;;
62149;SDS011;48134;53.586;10.610;2023-02-28T05:21:49;15.80;;;5.05;;
62149;SDS011;48134;53.586;10.610;2023-02-28T05:24:18;11.80;;;5.22;;
62149;SDS011;48134;53.586;10.610;2023-02-28T05:26:54;12.70;;;5.10;;
62149;SDS011;48134;53.586;10.610;2023-02-28T05:29:23;14.40;;;5.13;;
62149;SDS011;48134;53.586;10.610;2023-02-28T05:31:56;11.55;;;5.07;;
62149;SDS011;48134;53.586;10.610;2023-02-28T05:34:23;10.50;;;5.20;;
62149;SDS011;48134;53.586;10.610;2023-02-28T05:36:56;13.25;;;5.03;;
62149;SDS011;48134;53.586;10.610;2023-02-28T05:39:29;10.90;;;5.07;;
62149;SDS011;48134;53.586;10.610;2023-02-28T05:42:02;11.37;;;5.00;;
62149;SDS011;48134;53.586;10.610;2023-02-28T05:44:31;12.23;;;5.65;;
62149;SDS011;48134;53.586;10.610;2023-02-28T05:47:04;11.18;;;5.57;;
62149;SDS011;48134;53.586;10.610;2023-02-28T05:49:37;10.83;;;5.40;;
62149;SDS011;48134;53.586;10.610;2023-02-28T05:52:09;10.90;;;5.28;;
62149;SDS011;48134;53.586;10.610;2023-02-28T05:54:37;12.63;;;5.43;;
62149;SDS011;48134;53.586;10.610;2023-02-28T05:57:10;13.68;;;5.70;;
62149;SDS011;48134;53.586;10.610;2023-02-28T05:59:39;11.00;;;5.28;;
62149;SDS011;48134;53.586;10.610;2023-02-28T06:02:12;13.33;;;4.90;;
62149;SDS011;48134;53.586;10.610;2023-02-28T06:04:45;12.97;;;5.00;;
62149;SDS011;48134;53.586;10.610;2023-02-28T06:07:18;12.50;;;5.65;;
62149;SDS011;48134;53.586;10.610;2023-02-28T06:09:46;15.23;;;5.25;;
62149;SDS011;48134;53.586;10.610;2023-02-28T06:12:19;11.75;;;5.32;;
62149;SDS011;48134;53.586;10.610;2023-02-28T06:14:53;11.20;;;5.22;;
62149;SDS011;48134;53.586;10.610;2023-02-28T06:17:26;11.35;;;5.20;;
62149;SDS011;48134;53.586;10.610;2023-02-28T06:19:58;14.00;;;4.60;;
62149;SDS011;48134;53.586;10.610;2023-02-28T06:22:31;12.57;;;5.07;;
62149;SDS011;48134;53.586;10.610;2023-02-28T06:25:04;14.38;;;5.07;;
62149;SDS011;48134;53.586;10.610;2023-02-28T06:27:33;10.30;;;4.82;;
62149;SDS011;48134;53.586;10.610;2023-02-28T06:30:08;11.85;;;4.70;;
62149;SDS011;48134;53.586;10.610;2023-02-28T06:32:41;11.27;;;4.68;;
62149;SDS011;48134;53.586;10.610;2023-02-28T06:35:09;10.80;;;5.20;;
62149;SDS011;48134;53.586;10.610;2023-02-28T06:37:37;10.60;;;4.90;;
62149;SDS011;48134;53.586;10.610;2023-02-28T06:40:10;10.55;;;5.20;;
62149;SDS011;48134;53.586;10.610;2023-02-28T06:42:44;12.00;;;5.15;;
62149;SDS011;48134;53.586;10.610;2023-02-28T06:45:14;13.20;;;5.50;;
62149;SDS011;48134;53.586;10.610;2023-02-28T06:47:46;10.07;;;5.00;;
62149;SDS011;48134;53.586;10.610;2023-02-28T06:50:23;9.93;;;4.72;;
62149;SDS011;48134;53.586;10.610;2023-02-28T06:52:51;10.27;;;5.00;;
62149;SDS011;48134;53.586;10.610;2023-02-28T06:55:25;11.70;;;5.57;;
62149;SDS011;48134;53.586;10.610;2023-02-28T06:57:53;10.75;;;5.18;;
62149;SDS011;48134;53.586;10.610;2023-02-28T07:00:27;12.13;;;4.90;;
62149;SDS011;48134;53.586;10.610;2023-02-28T07:02:55;10.07;;;4.97;;
62149;SDS011;48134;53.586;10.610;2023-02-28T07:05:23;12.15;;;5.07;;
62149;SDS011;48134;53.586;10.610;2023-02-28T07:07:51;10.68;;;4.72;;
62149;SDS011;48134;53.586;10.610;2023-02-28T07:10:19;10.13;;;4.72;;
62149;SDS011;48134;53.586;10.610;2023-02-28T07:12:51;9.95;;;4.45;;
62149;SDS011;48134;53.586;10.610;2023-02-28T07:15:19;10.80;;;4.38;;
62149;SDS011;48134;53.586;10.610;2023-02-28T07:17:48;9.00;;;4.30;;
62149;SDS011;48134;53.586;10.610;2023-02-28T07:20:21;12.27;;;4.45;;
62149;SDS011;48134;53.586;10.610;2023-02-28T07:22:54;9.43;;;4.35;;
62149;SDS011;48134;53.586;10.610;2023-02-28T07:25:28;11.35;;;4.90;;
62149;SDS011;48134;53.586;10.610;2023-02-28T07:28:01;10.55;;;5.22;;
62149;SDS011;48134;53.586;10.610;2023-02-28T07:30:28;13.13;;;5.00;;
62149;SDS011;48134;53.586;10.610;2023-02-28T07:33:03;13.73;;;5.60;;
62149;SDS011;48134;53.586;10.610;2023-02-28T07:35:31;12.93;;;5.85;;
62149;SDS011;48134;53.586;10.610;2023-02-28T07:38:04;11.82;;;5.63;;
62149;SDS011;48134;53.586;10.610;2023-02-28T07:40:39;15.30;;;5.80;;
62149;SDS011;48134;53.586;10.610;2023-02-28T07:43:07;11.93;;;5.28;;
62149;SDS011;48134;53.586;10.610;2023-02-28T07:45:34;10.30;;;4.07;;
62149;SDS011;48134;53.586;10.610;2023-02-28T07:48:04;10.57;;;4.50;;
62149;SDS011;48134;53.586;10.610;2023-02-28T07:50:32;11.33;;;4.50;;
62149;SDS011;48134;53.586;10.610;2023-02-28T07:53:06;11.32;;;4.93;;
62149;SDS011;48134;53.586;10.610;2023-02-28T07:55:33;10.52;;;4.78;;
62149;SDS011;48134;53.586;10.610;2023-02-28T07:58:01;12.15;;;4.57;;
62149;SDS011;48134;53.586;10.610;2023-02-28T08:00:29;9.25;;;4.10;;
62149;SDS011;48134;53.586;10.610;2023-02-28T08:03:04;9.73;;;4.10;;
62149;SDS011;48134;53.586;10.610;2023-02-28T08:05:32;9.48;;;4.00;;
62149;SDS011;48134;53.586;10.610;2023-02-28T08:08:00;9.80;;;4.30;;
62149;SDS011;48134;53.586;10.610;2023-02-28T08:10:28;10.50;;;5.07;;
62149;SDS011;48134;53.586;10.610;2023-02-28T08:12:56;12.80;;;5.40;;
62149;SDS011;48134;53.586;10.610;2023-02-28T08:15:28;14.10;;;6.55;;
62149;SDS011;48134;53.586;10.610;2023-02-28T08:17:56;16.90;;;7.07;;
62149;SDS011;48134;53.586;10.610;2023-02-28T08:20:26;14.23;;;6.97;;
62149;SDS011;48134;53.586;10.610;2023-02-28T08:22:59;12.45;;;6.30;;
62149;SDS011;48134;53.586;10.610;2023-02-28T08:25:26;16.85;;;6.70;;
62149;SDS011;48134;53.586;10.610;2023-02-28T08:27:54;15.40;;;6.75;;
62149;SDS011;48134;53.586;10.610;2023-02-28T08:30:27;14.90;;;6.40;;
62149;SDS011;48134;53.586;10.610;2023-02-28T08:32:55;14.18;;;6.72;;
62149;SDS011;48134;53.586;10.610;2023-02-28T08:35:29;13.32;;;5.90;;
62149;SDS011;48134;53.586;10.610;2023-02-28T08:37:57;12.32;;;5.97;;
62149;SDS011;48134;53.586;10.610;2023-02-28T08:40:30;14.15;;;6.45;;
62149;SDS011;48134;53.586;10.610;2023-02-28T08:43:03;12.40;;;5.85;;
62149;SDS011;48134;53.586;10.610;2023-02-28T08:45:31;11.65;;;6.03;;
62149;SDS011;48134;53.586;10.610;2023-02-28T08:47:58;13.50;;;6.18;;
62149;SDS011;48134;53.586;10.610;2023-02-28T08:50:33;13.60;;;6.57;;
62149;SDS011;48134;53.586;10.610;2023-02-28T08:53:05;10.38;;;5.82;;
62149;SDS011;48134;53.586;10.610;2023-02-28T08:55:33;11.17;;;5.67;;
62149;SDS011;48134;53.586;10.610;2023-02-28T08:58:06;10.27;;;4.10;;
62149;SDS011;48134;53.586;10.610;2023-02-28T09:00:34;10.30;;;4.63;;
62149;SDS011;48134;53.586;10.610;2023-02-28T09:03:03;5.40;;;2.20;;
62149;SDS011;48134;53.586;10.610;2023-02-28T09:05:30;6.22;;;2.42;;
62149;SDS011;48134;53.586;10.610;2023-02-28T09:08:00;6.95;;;3.35;;
62149;SDS011;48134;53.586;10.610;2023-02-28T09:10:28;7.93;;;2.83;;
62149;SDS011;48134;53.586;10.610;2023-02-28T09:12:56;4.80;;;2.10;;
62149;SDS011;48134;53.586;10.610;2023-02-28T09:15:24;4.00;;;1.67;;
62149;SDS011;48134;53.586;10.610;2023-02-28T09:17:57;5.07;;;1.98;;
62149;SDS011;48134;53.586;10.610;2023-02-28T09:20:30;6.70;;;2.00;;
62149;SDS011;48134;53.586;10.610;2023-02-28T09:23:04;4.88;;;1.98;;
62149;SDS011;48134;53.586;10.610;2023-02-28T09:25:37;6.78;;;2.40;;
62149;SDS011;48134;53.586;10.610;2023-02-28T09:28:05;6.78;;;2.92;;
62149;SDS011;48134;53.586;10.610;2023-02-28T09:30:32;6.93;;;2.38;;
62149;SDS011;48134;53.586;10.610;2023-02-28T09:33:05;6.15;;;2.22;;
62149;SDS011;48134;53.586;10.610;2023-02-28T09:35:33;5.10;;;2.30;;
62149;SDS011;48134;53.586;10.610;2023-02-28T09:38:01;5.20;;;2.20;;
62149;SDS011;48134;53.586;10.610;2023-02-28T09:40:30;6.18;;;2.28;;
62149;SDS011;48134;53.586;10.610;2023-02-28T09:43:04;4.33;;;2.03;;
62149;SDS011;48134;53.586;10.610;2023-02-28T09:45:33;7.00;;;2.80;;
62149;SDS011;48134;53.586;10.610;2023-02-28T09:48:12;5.22;;;1.90;;
62149;SDS011;48134;53.586;10.610;2023-02-28T09:50:43;7.37;;;2.60;;
62149;SDS011;48134;53.586;10.610;2023-02-28T09:53:19;5.03;;;1.73;;
62149;SDS011;48134;53.586;10.610;2023-02-28T09:55:51;2.70;;;1.20;;
62149;SDS011;48134;53.586;10.610;2023-02-28T09:58:23;3.40;;;1.38;;
62149;SDS011;48134;53.586;10.610;2023-02-28T10:00:56;2.72;;;1.27;;
62149;SDS011;48134;53.586;10.610;2023-02-28T10:03:29;6.10;;;1.40;;
62149;SDS011;48134;53.586;10.610;2023-02-28T10:05:59;4.35;;;1.50;;
62149;SDS011;48134;53.586;10.610;2023-02-28T10:08:31;4.87;;;1.53;;
62149;SDS011;48134;53.586;10.610;2023-02-28T10:11:09;3.97;;;1.17;;
62149;SDS011;48134;53.586;10.610;2023-02-28T10:13:37;2.50;;;1.10;;
62149;SDS011;48134;53.586;10.610;2023-02-28T10:16:08;4.25;;;1.10;;
62149;SDS011;48134;53.586;10.610;2023-02-28T10:18:40;2.80;;;1.10;;
62149;SDS011;48134;53.586;10.610;2023-02-28T10:21:10;2.70;;;1.20;;
62149;SDS011;48134;53.586;10.610;2023-02-28T10:23:44;3.28;;;1.20;;
62149;SDS011;48134;53.586;10.610;2023-02-28T10:26:20;1.88;;;1.05;;
62149;SDS011;48134;53.586;10.610;2023-02-28T10:28:50;3.45;;;1.30;;
62149;SDS011;48134;53.586;10.610;2023-02-28T10:31:24;3.00;;;1.23;;
62149;SDS011;48134;53.586;10.610;2023-02-28T10:33:51;2.90;;;0.95;;
62149;SDS011;48134;53.586;10.610;2023-02-28T10:36:20;3.42;;;1.45;;
62149;SDS011;48134;53.586;10.610;2023-02-28T10:38:53;5.32;;;1.45;;
62149;SDS011;48134;53.586;10.610;2023-02-28T10:41:29;4.05;;;1.10;;
62149;SDS011;48134;53.586;10.610;2023-02-28T10:46:46;3.60;;;1.50;;
62149;SDS011;48134;53.586;10.610;2023-02-28T10:49:17;4.10;;;1.40;;
62149;SDS011;48134;53.586;10.610;2023-02-28T10:51:45;3.38;;;1.58;;
62149;SDS011;48134;53.586;10.610;2023-02-28T10:54:20;5.27;;;1.87;;
62149;SDS011;48134;53.586;10.610;2023-02-28T10:59:41;4.57;;;1.40;;
62149;SDS011;48134;53.586;10.610;2023-02-28T11:04:57;5.47;;;2.30;;
62149;SDS011;48134;53.586;10.610;2023-02-28T11:07:30;4.85;;;1.45;;
62149;SDS011;48134;53.586;10.610;2023-02-28T11:09:58;4.23;;;1.60;;
62149;SDS011;48134;53.586;10.610;2023-02-28T11:12:33;5.15;;;1.60;;
62149;SDS011;48134;53.586;10.610;2023-02-28T11:15:04;5.85;;;1.75;;
62149;SDS011;48134;53.586;10.610;2023-02-28T11:17:33;4.40;;;1.48;;
62149;SDS011;48134;53.586;10.610;2023-02-28T11:20:18;5.22;;;2.00;;
62149;SDS011;48134;53.586;10.610;2023-02-28T11:22:56;4.93;;;1.50;;
62149;SDS011;48134;53.586;10.610;2023-02-28T11:25:30;3.67;;;1.30;;
62149;SDS011;48134;53.586;10.610;2023-02-28T11:28:04;4.35;;;1.75;;
62149;SDS011;48134;53.586;10.610;2023-02-28T11:30:35;3.10;;;1.30;;
62149;SDS011;48134;53.586;10.610;2023-02-28T11:33:18;6.68;;;1.55;;
62149;SDS011;48134;53.586;10.610;2023-02-28T11:35:53;4.68;;;1.50;;
62149;SDS011;48134;53.586;10.610;2023-02-28T11:38:27;4.25;;;1.60;;
62149;SDS011;48134;53.586;10.610;2023-02-28T11:41:13;5.72;;;1.70;;
62149;SDS011;48134;53.586;10.610;2023-02-28T11:43:50;3.65;;;1.67;;
62149;SDS011;48134;53.586;10.610;2023-02-28T11:46:29;3.33;;;1.58;;
62149;SDS011;48134;53.586;10.610;2023-02-28T11:49:06;5.10;;;1.52;;
62149;SDS011;48134;53.586;10.610;2023-02-28T11:51:45;3.72;;;1.52;;
62149;SDS011;48134;53.586;10.610;2023-02-28T11:56:57;3.00;;;1.40;;
62149;SDS011;48134;53.586;10.610;2023-02-28T11:59:37;3.35;;;1.40;;
62149;SDS011;48134;53.586;10.610;2023-02-28T12:02:27;2.38;;;1.10;;
62149;SDS011;48134;53.586;10.610;2023-02-28T12:07:49;3.05;;;1.30;;
62149;SDS011;48134;53.586;10.610;2023-02-28T12:10:21;4.60;;;1.50;;
62149;SDS011;48134;53.586;10.610;2023-02-28T12:12:52;3.57;;;1.33;;
62149;SDS011;48134;53.586;10.610;2023-02-28T12:15:33;3.15;;;1.50;;
62149;SDS011;48134;53.586;10.610;2023-02-28T12:18:09;3.08;;;1.23;;
62149;SDS011;48134;53.586;10.610;2023-02-28T12:20:46;4.57;;;1.70;;
62149;SDS011;48134;53.586;10.610;2023-02-28T12:23:26;3.67;;;1.60;;
62149;SDS011;48134;53.586;10.610;2023-02-28T12:26:00;6.07;;;1.40;;
62149;SDS011;48134;53.586;10.610;2023-02-28T12:28:35;3.53;;;1.30;;
62149;SDS011;48134;53.586;10.610;2023-02-28T12:31:06;3.38;;;1.50;;
62149;SDS011;48134;53.586;10.610;2023-02-28T12:33:42;3.65;;;1.27;;
62149;SDS011;48134;53.586;10.610;2023-02-28T12:36:16;3.55;;;1.50;;
62149;SDS011;48134;53.586;10.610;2023-02-28T12:38:53;3.72;;;1.23;;
62149;SDS011;48134;53.586;10.610;2023-02-28T12:41:25;3.70;;;1.50;;
62149;SDS011;48134;53.586;10.610;2023-02-28T12:44:00;3.75;;;1.50;;
62149;SDS011;48134;53.586;10.610;2023-02-28T12:46:33;3.28;;;1.40;;
62149;SDS011;48134;53.586;10.610;2023-02-28T12:49:06;4.05;;;1.30;;
62149;SDS011;48134;53.586;10.610;2023-02-28T12:51:41;4.40;;;1.50;;
62149;SDS011;48134;53.586;10.610;2023-02-28T12:54:18;3.47;;;1.50;;
62149;SDS011;48134;53.586;10.610;2023-02-28T12:56:47;4.10;;;1.45;;
62149;SDS011;48134;53.586;10.610;2023-02-28T12:59:25;2.97;;;1.30;;
62149;SDS011;48134;53.586;10.610;2023-02-28T13:02:09;3.13;;;1.20;;
62149;SDS011;48134;53.586;10.610;2023-02-28T13:05:03;2.67;;;1.35;;
62149;SDS011;48134;53.586;10.610;2023-02-28T13:07:58;3.60;;;1.48;;
62149;SDS011;48134;53.586;10.610;2023-02-28T13:10:37;2.45;;;1.13;;
62149;SDS011;48134;53.586;10.610;2023-02-28T13:13:05;2.38;;;1.23;;
62149;SDS011;48134;53.586;10.610;2023-02-28T13:15:38;2.63;;;1.40;;
62149;SDS011;48134;53.586;10.610;2023-02-28T13:18:25;4.20;;;1.30;;
62149;SDS011;48134;53.586;10.610;2023-02-28T13:20:56;3.08;;;1.40;;
62149;SDS011;48134;53.586;10.610;2023-02-28T13:23:37;3.00;;;1.30;;
62149;SDS011;48134;53.586;10.610;2023-02-28T13:26:05;3.05;;;1.30;;
62149;SDS011;48134;53.586;10.610;2023-02-28T13:34:25;2.42;;;1.17;;
62149;SDS011;48134;53.586;10.610;2023-02-28T13:39:47;3.08;;;1.23;;
62149;SDS011;48134;53.586;10.610;2023-02-28T13:42:32;3.38;;;1.20;;
62149;SDS011;48134;53.586;10.610;2023-02-28T13:45:22;3.33;;;1.37;;
62149;SDS011;48134;53.586;10.610;2023-02-28T13:47:53;3.80;;;1.40;;
62149;SDS011;48134;53.586;10.610;2023-02-28T13:50:29;4.22;;;1.38;;
62149;SDS011;48134;53.586;10.610;2023-02-28T13:55:53;4.20;;;1.63;;
62149;SDS011;48134;53.586;10.610;2023-02-28T13:58:26;3.47;;;1.40;;
62149;SDS011;48134;53.586;10.610;2023-02-28T14:01:07;3.83;;;1.48;;
62149;SDS011;48134;53.586;10.610;2023-02-28T14:03:46;3.63;;;1.40;;
62149;SDS011;48134;53.586;10.610;2023-02-28T14:06:22;3.95;;;1.45;;
62149;SDS011;48134;53.586;10.610;2023-02-28T14:08:55;3.65;;;1.60;;
62149;SDS011;48134;53.586;10.610;2023-02-28T14:11:27;5.63;;;1.70;;
62149;SDS011;48134;53.586;10.610;2023-02-28T14:14:01;4.15;;;1.60;;
62149;SDS011;48134;53.586;10.610;2023-02-28T14:16:35;4.13;;;1.50;;
62149;SDS011;48134;53.586;10.610;2023-02-28T14:19:12;3.88;;;1.63;;
62149;SDS011;48134;53.586;10.610;2023-02-28T14:21:44;3.22;;;1.40;;
62149;SDS011;48134;53.586;10.610;2023-02-28T14:27:11;4.25;;;1.50;;
62149;SDS011;48134;53.586;10.610;2023-02-28T14:32:32;3.40;;;1.63;;
62149;SDS011;48134;53.586;10.610;2023-02-28T14:35:12;3.80;;;1.60;;
62149;SDS011;48134;53.586;10.610;2023-02-28T14:37:47;3.47;;;1.67;;
62149;SDS011;48134;53.586;10.610;2023-02-28T14:40:16;4.03;;;1.60;;
62149;SDS011;48134;53.586;10.610;2023-02-28T14:42:48;5.00;;;1.70;;
62149;SDS011;48134;53.586;10.610;2023-02-28T14:45:22;3.65;;;1.75;;
62149;SDS011;48134;53.586;10.610;2023-02-28T14:47:50;4.60;;;1.77;;
62149;SDS011;48134;53.586;10.610;2023-02-28T14:50:19;5.35;;;2.17;;
62149;SDS011;48134;53.586;10.610;2023-02-28T14:52:47;3.17;;;1.60;;
62149;SDS011;48134;53.586;10.610;2023-02-28T14:55:23;4.53;;;1.90;;
62149;SDS011;48134;53.586;10.610;2023-02-28T14:57:53;4.10;;;1.70;;
62149;SDS011;48134;53.586;10.610;2023-02-28T15:00:22;4.10;;;1.60;;
62149;SDS011;48134;53.586;10.610;2023-02-28T15:02:56;4.50;;;1.70;;
62149;SDS011;48134;53.586;10.610;2023-02-28T15:05:30;4.00;;;1.70;;
62149;SDS011;48134;53.586;10.610;2023-02-28T15:08:04;4.93;;;1.98;;
62149;SDS011;48134;53.586;10.610;2023-02-28T15:10:32;4.63;;;1.80;;
62149;SDS011;48134;53.586;10.610;2023-02-28T15:13:02;4.32;;;1.85;;
62149;SDS011;48134;53.586;10.610;2023-02-28T15:15:35;3.73;;;1.60;;
62149;SDS011;48134;53.586;10.610;2023-02-28T15:18:07;3.22;;;1.70;;
62149;SDS011;48134;53.586;10.610;2023-02-28T15:20:38;5.05;;;2.00;;
62149;SDS011;48134;53.586;10.610;2023-02-28T15:23:06;4.15;;;1.67;;
62149;SDS011;48134;53.586;10.610;2023-02-28T15:25:39;3.85;;;1.80;;
62149;SDS011;48134;53.586;10.610;2023-02-28T15:28:14;5.30;;;2.00;;
62149;SDS011;48134;53.586;10.610;2023-02-28T15:30:50;4.90;;;1.95;;
62149;SDS011;48134;53.586;10.610;2023-02-28T15:33:19;5.20;;;1.77;;
62149;SDS011;48134;53.586;10.610;2023-02-28T15:35:47;3.22;;;1.52;;
62149;SDS011;48134;53.586;10.610;2023-02-28T15:38:17;4.83;;;1.77;;
62149;SDS011;48134;53.586;10.610;2023-02-28T15:40:51;3.50;;;1.60;;
62149;SDS011;48134;53.586;10.610;2023-02-28T15:43:28;4.20;;;1.80;;
62149;SDS011;48134;53.586;10.610;2023-02-28T15:46:02;3.47;;;1.52;;